Le Roy, IL (61752)

10:22 AM CDT on March 24, 2017 (GMT -0500)
LeRoy Fertilizer Services | | Change Station

Elev 784 ft 40.35 °N, 88.77 °W | Updated 11 minutes ago

Clear
Clear
67.6 °F
Feels Like 67.6 °F
N
1.0
Wind Variable Wind from SSW
Gusts 13.0 mph

Today
High -- | Low -- °F
--% Chance of Precip.
Yesterday
High -- | Low -- °F
Precip. -- in
Pressure 30.06 in
Visibility 10.0 miles
Clouds Clear
Dew Point 56 °F
Humidity 67%
Rainfall 0.04 in
Snow Depth Not available.
6:51 AM 7:11 PM
Waning Crescent, 14% visible
METAR KBMI 241456Z 20016G21KT 10SM CLR 19/11 A2998 RMK AO2 SLP177 T01940111 55005
Pressure 30.06 in
Visibility 10.0 miles
Clouds Clear
Dew Point 56 °F
Humidity 67%
Rainfall 0.04 in
Snow Depth Not available.
6:51 AM 7:11 PM
Waning Crescent, 14% visible
METAR KBMI 241456Z 20016G21KT 10SM CLR 19/11 A2998 RMK AO2 SLP177 T01940111 55005

Get Severe Weather Alerts

Thanks for signing up!

Be on the lookout for a verification email in your inbox.

You'll start receiving the daily forecast at 8 AM.

×

10-Day Weather Forecast

Almanac

Astronomy

Mar. 24, 2017 Rise Set
Actual Time
Civil Twilight
Nautical Twilight
Astronomical Twilight
Moon
Length of Visible Light
Length of Day
Tomorrow will be .
, % of the Moon is Illuminated

Today's Extremes

State Highs State Lows

Community

WunderPhotos

Upload Photos

1,962,540 photos uploaded!

WunderBlog® & News

Nearby

Air Quality

  Air Quality AQ Index Pollutant
Not available.

Snow Depth

Station Depth Elevation

Earthquake Activity

City Distance Mag. Time & Date
Minimum magnitude displayed is 2.5.

Earthquake Activity

City Distance Mag. Time & Date
Minimum magnitude displayed is 2.5.

Coastal Water Temperatures

Place Temperature

Stations

Nearby Weather Stations

Station Location Temp. Windchill Dew Point Humidity Wind Precip. Elev Updated Type
                   

Watches & Warnings

There are currently no watches in effect.